Daggett, CA

1:45 PM PDT on July 25, 2014 (GMT -0700)
Barstow-Daggett (KDAG) Elev 1926 ft | 34.85 °N, 116.79 °W | Change Station

Current weather conditions updated 7 minutes ago

Clear
Clear
106 °F
Feels Like 106 °F
N
7
Wind Variable Wind from Variable

Today is forecast to be Cooler than yesterday.

Today
High -- | Low -- °F
--% Chance of Precip.
Yesterday
High -- | Low -- °F
Precip. -- in
5:51 AM 7:55 PM
Waning Crescent, 1% visible
Pressure 29.86 in
Visibility 10.0 miles
Clouds Clear
Dew Point 43 °F
Humidity 12%
Rainfall 0.00 in
Snow Depth Not available.
UV 12 out of 12
Pollen 3.70 out of 12
Ozone Good
Flu Activity Not available.
SPECI KDAG 252038Z AUTO VRB06KT 10SM CLR 41/06 A2986 RMK AO2 WSHFT 2021 T04110061

More Conditions Fewer Conditions

Pressure 29.86 in
Visibility 10.0 miles
Clouds Clear
Dew Point 43 °F
Humidity 12%
Rainfall 0.00 in
Snow Depth Not available.
UV 12 out of 12
Pollen 3.70 out of 12
Ozone Good
Flu Activity Not available.
SPECI KDAG 252038Z AUTO VRB06KT 10SM CLR 41/06 A2986 RMK AO2 WSHFT 2021 T04110061

More Conditions Fewer Conditions

10-Day Weather Forecast

Almanac

Astronomy

Jul. 25, 2014 Rise Set
Actual Time 5:51 AM PDT 7:55 PM PDT
Civil Twilight 5:23 AM PDT 8:23 PM PDT
Nautical Twilight 4:49 AM PDT 8:57 PM PDT
Astronomical Twilight 4:12 AM PDT 9:34 PM PDT
Moon 4:53 AM PDT 6:57 PM PDT
Length of Visible Light 14h 59m
Length of Day
14h 03m
Tomorrow will be 1m 27s shorter.
Waning Crescent, 1% of the Moon is Illuminated
Today
Waning Crescent
Jul 26
New
Aug 3
First Quarter
Aug 10
Full
Aug 17
Last Quarter

Today's Extremes

State Highs State Lows

Community

WunderPhotos

Upload Photos

1,737,396 photos uploaded!

Nearby

Air Quality

  Air Quality AQ Index Pollutant
Yesterday Moderate
OZONE
Current Good
OZONE
Saturday Moderate
OZONE
Saturday Good
PM10
Saturday Good
CO
Saturday Good
NO2

Snow Depth

Station Depth Elevation
Leavitt Meadows 0 in 7200 ft
Echo Peak 0 in 7800 ft
Fallen Leaf 0 in 6300 ft
Squaw Valley 0 in 8200 ft
Adin Mountain 0 in 6200 ft

Earthquake Activity

City Distance Mag. Time & Date
Baker, California 54 miles 3.0 12:48 PM PDT
2014-07-20
Baker, California 55 miles 3.2 12:43 PM PDT
2014-07-20
Pine Valley, California 138 miles 3.1 2:18 AM PDT
2014-07-20
Minimum magnitude displayed is 2.5.

Coastal Water Temperatures

Place Temperature
No Stations Reporting

Nearby Weather Stations

Station Location Temp. Heat Index Dew Point Humidity Wind Precip. Elev Updated Type
Riverside Road, Newberry Springs, CA 99.6 °F 97 °F 53 °F 21% ESE  at  11.0 mph 0.00 in / hr 1814 ft 1:45 PM PDT Rapid Fire
MesoWest MANIX , Newberry Springs, CA 98 °F 93 °F - - North  at  - 0.00 in / hr 1796 ft 12:25 PM PDT MADIS

Show More Stations Show Fewer Stations